JBU1347 KDCA-TJSJ
Flight info
| Callsign | JBU1347 |
|---|---|
| Flight time | N/A |
| Altitude | 35000 |
| Route | AMEEE1 SCOOB DCT KEMPR DCT ECG AR8 OXANA/M078F350 L452 LNHOM/N0454F350 L452 SLUKA DCT FIPEK Y355 PLING RTE7 SAALR |
| Aircraft | A321/M-SDE3FGHIRWY/LB1 |
Departure
| Time | 2026-04-25 12:32 |
|---|---|
| Airport | Ronald Reagan Washington National Airport (KDCA) |
Arrival
| Time | N/A |
|---|---|
| Airport | Luis Munoz Marin International Airport (TJSJ) |
| Time | Latitude | Longitude | Altitude | Speed | Heading |
|---|---|---|---|---|---|
| 2026-04-25 11:35 | 38.85432 | -77.04283 | 24 ft | 0 kts | 162° |
| 2026-04-25 12:22 | 38.85440 | -77.04286 | 24 ft | 4 kts | 159° |
| 2026-04-25 12:22 | 38.85464 | -77.04300 | 26 ft | 4 kts | 178° |
| 2026-04-25 12:23 | 38.85481 | -77.04298 | 25 ft | 4 kts | 239° |
| 2026-04-25 12:23 | 38.85492 | -77.04275 | 24 ft | 2 kts | 223° |
| 2026-04-25 12:23 | 38.85503 | -77.04252 | 25 ft | 4 kts | 274° |
| 2026-04-25 12:23 | 38.85505 | -77.04219 | 24 ft | 4 kts | 252° |
| 2026-04-25 12:24 | 38.85513 | -77.04186 | 24 ft | 4 kts | 252° |
| 2026-04-25 12:24 | 38.85521 | -77.04153 | 24 ft | 4 kts | 256° |
| 2026-04-25 12:24 | 38.85526 | -77.04119 | 24 ft | 4 kts | 268° |
| 2026-04-25 12:24 | 38.85524 | -77.04086 | 24 ft | 4 kts | 294° |
| 2026-04-25 12:25 | 38.85510 | -77.04066 | 24 ft | 1 kts | 343° |
| 2026-04-25 12:25 | 38.85506 | -77.04064 | 24 ft | 0 kts | 343° |
| 2026-04-25 12:29 | 38.85526 | -77.04067 | 24 ft | 3 kts | 12° |
| 2026-04-25 12:29 | 38.85549 | -77.04034 | 25 ft | 7 kts | 55° |
| 2026-04-25 12:29 | 38.85578 | -77.03971 | 25 ft | 10 kts | 34° |
| 2026-04-25 12:29 | 38.85655 | -77.03969 | 26 ft | 13 kts | 354° |
| 2026-04-25 12:30 | 38.85751 | -77.03980 | 28 ft | 15 kts | 356° |
| 2026-04-25 12:30 | 38.85871 | -77.03989 | 25 ft | 19 kts | 356° |
| 2026-04-25 12:30 | 38.85975 | -77.03968 | 24 ft | 10 kts | 16° |
| 2026-04-25 12:30 | 38.86033 | -77.03947 | 22 ft | 0 kts | 16° |
| 2026-04-25 12:31 | 38.86122 | -77.03912 | 28 ft | 0 kts | 17° |
| 2026-04-25 12:31 | 38.86115 | -77.03871 | 29 ft | 0 kts | 174° |
| 2026-04-25 12:32 | 38.84656 | -77.03715 | 809 ft | 167 kts | 173° |
| 2026-04-25 12:32 | 38.83575 | -77.03547 | 954 ft | 168 kts | 168° |
| 2026-04-25 12:32 | 38.82325 | -77.03290 | 988 ft | 194 kts | 168° |
| 2026-04-25 12:32 | 38.80922 | -77.02996 | 989 ft | 215 kts | 168° |
| 2026-04-25 12:33 | 38.79379 | -77.02674 | 1099 ft | 233 kts | 169° |
| 2026-04-25 12:33 | 38.77791 | -77.02347 | 1589 ft | 235 kts | 169° |
| 2026-04-25 12:33 | 38.76177 | -77.02013 | 2114 ft | 236 kts | 168° |
| 2026-04-25 12:33 | 38.74646 | -77.01311 | 2645 ft | 233 kts | 145° |
| 2026-04-25 12:34 | 38.73319 | -77.00136 | 3139 ft | 236 kts | 144° |
| 2026-04-25 12:34 | 38.71925 | -76.98889 | 3311 ft | 250 kts | 144° |
| 2026-04-25 12:34 | 38.70478 | -76.97600 | 3691 ft | 256 kts | 145° |
| 2026-04-25 12:34 | 38.69485 | -76.96720 | 3987 ft | 259 kts | 145° |
| 2026-04-25 12:35 | 38.67504 | -76.94971 | 4926 ft | 264 kts | 146° |
| 2026-04-25 12:35 | 38.65983 | -76.93625 | 5601 ft | 269 kts | 146° |
| 2026-04-25 12:35 | 38.64431 | -76.92256 | 6265 ft | 273 kts | 147° |
| 2026-04-25 12:35 | 38.62850 | -76.90867 | 6921 ft | 279 kts | 148° |
| 2026-04-25 12:36 | 38.61226 | -76.89440 | 7512 ft | 286 kts | 148° |
| 2026-04-25 12:36 | 38.59577 | -76.87995 | 8162 ft | 290 kts | 148° |
| 2026-04-25 12:36 | 38.57902 | -76.86522 | 8799 ft | 294 kts | 148° |
| 2026-04-25 12:36 | 38.56213 | -76.85032 | 9421 ft | 298 kts | 148° |
| 2026-04-25 12:37 | 38.54501 | -76.83519 | 10071 ft | 300 kts | 148° |
| 2026-04-25 12:37 | 38.52741 | -76.81949 | 10352 ft | 319 kts | 148° |
| 2026-04-25 12:37 | 38.50861 | -76.80267 | 10487 ft | 341 kts | 147° |
| 2026-04-25 12:37 | 38.48857 | -76.78471 | 10630 ft | 361 kts | 147° |
| 2026-04-25 12:38 | 38.46777 | -76.76609 | 11075 ft | 369 kts | 147° |
| 2026-04-25 12:38 | 38.44665 | -76.74723 | 11665 ft | 372 kts | 147° |
| 2026-04-25 12:38 | 38.42499 | -76.72901 | 12284 ft | 374 kts | 153° |
| 2026-04-25 12:38 | 38.40121 | -76.71566 | 12874 ft | 374 kts | 164° |
| 2026-04-25 12:39 | 38.37585 | -76.70833 | 13428 ft | 375 kts | 175° |
| 2026-04-25 12:39 | 38.34985 | -76.70429 | 13985 ft | 379 kts | 175° |
| 2026-04-25 12:39 | 38.32344 | -76.70016 | 14530 ft | 383 kts | 175° |
| 2026-04-25 12:39 | 38.29718 | -76.69598 | 15070 ft | 387 kts | 175° |
| 2026-04-25 12:40 | 38.26999 | -76.69160 | 15611 ft | 391 kts | 175° |
| 2026-04-25 12:40 | 38.24289 | -76.68720 | 16137 ft | 395 kts | 175° |
| 2026-04-25 12:40 | 38.21543 | -76.68273 | 16663 ft | 400 kts | 175° |
| 2026-04-25 12:40 | 38.18804 | -76.67829 | 17166 ft | 403 kts | 175° |
| 2026-04-25 12:41 | 38.15975 | -76.67372 | 17671 ft | 407 kts | 175° |
| 2026-04-25 12:41 | 38.13146 | -76.66917 | 18153 ft | 411 kts | 175° |
| 2026-04-25 12:41 | 38.10297 | -76.66463 | 18629 ft | 415 kts | 175° |
| 2026-04-25 12:41 | 38.07415 | -76.66098 | 19116 ft | 417 kts | 178° |
| 2026-04-25 12:42 | 38.04504 | -76.65859 | 19581 ft | 420 kts | 179° |
| 2026-04-25 12:42 | 38.02559 | -76.65748 | 19895 ft | 422 kts | 180° |
| 2026-04-25 12:42 | 37.98657 | -76.65573 | 20493 ft | 426 kts | 180° |
| 2026-04-25 12:42 | 37.95646 | -76.65436 | 20928 ft | 429 kts | 179° |
| 2026-04-25 12:43 | 37.92688 | -76.65275 | 21337 ft | 432 kts | 179° |
| 2026-04-25 12:43 | 37.89633 | -76.65081 | 21743 ft | 435 kts | 179° |
| 2026-04-25 12:43 | 37.83549 | -76.64654 | 22528 ft | 441 kts | 178° |
| 2026-04-25 12:44 | 37.80482 | -76.64441 | 22909 ft | 443 kts | 179° |
| 2026-04-25 12:44 | 37.77390 | -76.64231 | 23283 ft | 445 kts | 179° |
| 2026-04-25 12:44 | 37.71164 | -76.63818 | 23980 ft | 451 kts | 179° |
| 2026-04-25 12:45 | 37.68030 | -76.63612 | 24334 ft | 453 kts | 179° |
| 2026-04-25 12:45 | 37.64873 | -76.63404 | 24675 ft | 455 kts | 179° |
| 2026-04-25 12:45 | 37.58507 | -76.62958 | 25342 ft | 460 kts | 178° |
| 2026-04-25 12:46 | 37.55309 | -76.62580 | 25658 ft | 464 kts | 175° |
| 2026-04-25 12:46 | 37.52098 | -76.62059 | 25970 ft | 466 kts | 174° |
| 2026-04-25 12:46 | 37.48884 | -76.61451 | 26276 ft | 469 kts | 173° |
| 2026-04-25 12:46 | 37.45652 | -76.60813 | 26575 ft | 471 kts | 173° |
| 2026-04-25 12:47 | 37.42406 | -76.60187 | 26860 ft | 473 kts | 173° |
| 2026-04-25 12:47 | 37.39146 | -76.59591 | 27145 ft | 475 kts | 174° |
| 2026-04-25 12:47 | 37.35856 | -76.59024 | 27425 ft | 476 kts | 174° |
| 2026-04-25 12:47 | 37.32569 | -76.58482 | 27700 ft | 479 kts | 174° |
| 2026-04-25 12:48 | 37.29260 | -76.57945 | 27977 ft | 481 kts | 174° |
| 2026-04-25 12:48 | 37.25932 | -76.57405 | 28253 ft | 483 kts | 174° |
| 2026-04-25 12:48 | 37.22597 | -76.56855 | 28520 ft | 485 kts | 174° |
| 2026-04-25 12:48 | 37.19246 | -76.56292 | 28811 ft | 486 kts | 174° |
| 2026-04-25 12:49 | 37.15900 | -76.55727 | 29171 ft | 485 kts | 174° |
| 2026-04-25 12:49 | 37.12555 | -76.55161 | 29525 ft | 484 kts | 174° |
| 2026-04-25 12:49 | 37.09225 | -76.54599 | 29884 ft | 484 kts | 174° |
| 2026-04-25 12:49 | 37.05890 | -76.54039 | 30229 ft | 483 kts | 174° |
| 2026-04-25 12:50 | 37.02560 | -76.53479 | 30561 ft | 482 kts | 174° |
| 2026-04-25 12:50 | 36.99237 | -76.52924 | 30877 ft | 482 kts | 174° |
| 2026-04-25 12:50 | 36.95916 | -76.52373 | 31213 ft | 481 kts | 174° |
| 2026-04-25 12:50 | 36.92601 | -76.51823 | 31520 ft | 481 kts | 174° |
| 2026-04-25 12:51 | 36.89278 | -76.51271 | 31823 ft | 481 kts | 174° |
| 2026-04-25 12:51 | 36.85971 | -76.50718 | 32135 ft | 480 kts | 174° |
| 2026-04-25 12:51 | 36.82662 | -76.50161 | 32427 ft | 479 kts | 174° |
| 2026-04-25 12:51 | 36.79358 | -76.49606 | 32714 ft | 479 kts | 174° |
| 2026-04-25 12:52 | 36.76073 | -76.48835 | 32989 ft | 481 kts | 166° |
| 2026-04-25 12:52 | 36.72900 | -76.47485 | 33259 ft | 483 kts | 158° |
| 2026-04-25 12:52 | 36.69884 | -76.45637 | 33524 ft | 483 kts | 154° |